Windhoek — 3FWJ3 — position and weather

sailwx.info

Track history (hours):
 
Tides and Currents Weather Stations Pressure Air Temp Water Temp Dewpoint Dewpoint Depression Visibility Wind Speed Wind Dir Waves Ship Positions

Windhoek

Last reported at 2017-Jan-03 16:28 UTC. Time now 2017-Jan-17 19:14 UTC.
Position N 27°02' W 014°18'.
Warning: this ship's position is 14 days out of date.

Length 172 m; draft 9.2 m.

Type: Ship (hazmat cat C). MMSI: 370431000.

Date/timePositionNaut miles runAvg speedWind from/ knotsBaromVisibWave heightAir tempDewpointWater temp
2017-Jan-03 16:28N 27°02' W 014°18'1515.5
2017-Jan-03 15:32N 27°15' W 014°09'3015.4
2017-Jan-03 13:33N 27°40' W 013°51'3015.0
2017-Jan-03 11:33N 28°06' W 013°32'1814.6
2017-Jan-03 10:21N 28°21' W 013°22'1414.5
2017-Jan-03 09:21N 28°33' W 013°13'  
2016-Dec-30 08:15N 36°08' W 005°25'0 0.0
2016-Dec-30 07:33N 36°08' W 005°25'0 0.0
2016-Dec-30 06:33N 36°08' W 005°25'0 0.0
2016-Dec-30 05:33N 36°08' W 005°25'0 0.0
2016-Dec-30 04:24N 36°08' W 005°25'0 0.0
2016-Dec-30 03:33N 36°08' W 005°25'0 0.0
2016-Dec-30 02:33N 36°08' W 005°25'0 0.0
2016-Dec-30 01:33N 36°08' W 005°25'0 0.0
2016-Dec-30 00:33N 36°08' W 005°25'0 0.0
2016-Dec-29 23:33N 36°08' W 005°25'0 0.1
2016-Dec-29 22:33N 36°08' W 005°25'4 4.4
2016-Dec-29 21:33N 36°04' W 005°23'2 2.3
2016-Dec-29 20:33N 36°03' W 005°20'1 1.2
2016-Dec-29 19:33N 36°03' W 005°18'2 2.0
2016-Dec-29 18:33N 36°02' W 005°21'8 8.0
2016-Dec-29 17:33N 35°57' W 005°28'7 5.9
2016-Dec-29 16:26N 35°53' W 005°34'0 0.0
2016-Dec-29 15:26N 35°53' W 005°34'0 0.1
2016-Dec-29 08:26N 35°53' W 005°34'2 0.1
2016-Dec-28 12:19N 35°55' W 005°33'2 1.8
2016-Dec-28 11:15N 35°57' W 005°32'811.3
2016-Dec-28 10:34N 36°01' W 005°24'1211.6
2016-Dec-28 09:33N 36°04' W 005°10'12514.9
2016-Dec-28 01:09N 36°22' W 002°37'1016.1
2016-Dec-28 00:33N 36°23' W 002°25'3115.4
2016-Dec-27 22:33N 36°39' W 001°52'9916.1
2016-Dec-27 16:26N 37°47' W 000°22'9812.0
2016-Dec-27 08:18N 39°25' W 000°15'4 5.3
2016-Dec-27 07:33N 39°27' W 000°19'0 0.0
2016-Dec-27 06:33N 39°27' W 000°19'0 0.0
2016-Dec-27 05:33N 39°27' W 000°19'0 0.0
2016-Dec-27 04:33N 39°27' W 000°19'0 0.0
2016-Dec-27 03:33N 39°27' W 000°19'0 0.0
2016-Dec-27 02:33N 39°27' W 000°19'0 0.0
2016-Dec-27 01:33N 39°27' W 000°19'0 0.0
2016-Dec-27 00:33N 39°27' W 000°19'0 0.0
2016-Dec-26 23:33N 39°27' W 000°19'0 0.0
2016-Dec-26 22:33N 39°27' W 000°19'0 0.0
2016-Dec-26 21:33N 39°27' W 000°19'0 0.0
2016-Dec-26 20:33N 39°27' W 000°19'0 0.0
2016-Dec-26 19:33N 39°27' W 000°19'0 0.0
2016-Dec-26 18:33N 39°27' W 000°19'0 0.0
2016-Dec-26 17:33N 39°27' W 000°19'0 0.0
2016-Dec-26 16:33N 39°27' W 000°19'0 0.0
2016-Dec-26 15:33N 39°27' W 000°19'0 0.0
2016-Dec-26 14:33N 39°27' W 000°19'0 0.0
2016-Dec-26 13:33N 39°27' W 000°19'0 0.0
2016-Dec-26 12:33N 39°27' W 000°19'0 0.0
2016-Dec-26 11:33N 39°27' W 000°19'0 0.0
2016-Dec-26 10:33N 39°27' W 000°19'0 0.0
2016-Dec-26 09:33N 39°27' W 000°19'0 0.0
2016-Dec-26 08:33N 39°27' W 000°19'0 0.0
2016-Dec-26 07:33N 39°27' W 000°19'0 0.0
2016-Dec-26 06:33N 39°27' W 000°19'0 0.1
2016-Dec-26 05:33N 39°27' W 000°19'5 5.0
2016-Dec-26 04:32N 39°24' W 000°14'0 0.0
2016-Dec-26 03:32N 39°24' W 000°14'0 0.0
2016-Dec-26 02:32N 39°24' W 000°14'0 0.0
2016-Dec-26 01:29N 39°24' W 000°14'0 0.0
2016-Dec-26 00:32N 39°24' W 000°14'0 0.0
2016-Dec-25 23:29N 39°24' W 000°14'0 0.0
2016-Dec-25 22:14N 39°24' W 000°14'0 0.0
2016-Dec-25 21:29N 39°24' W 000°14'0 0.0
2016-Dec-25 20:32N 39°24' W 000°14'0 0.1
2016-Dec-25 19:26N 39°24' W 000°14'0 0.0
2016-Dec-25 15:29N 39°24' W 000°14'0 0.0
2016-Dec-25 13:32N 39°24' W 000°14'0 0.0
2016-Dec-25 11:17N 39°24' W 000°14'0 0.0
2016-Dec-25 10:32N 39°24' W 000°14'0 0.0
2016-Dec-25 09:29N 39°24' W 000°14'0 0.0
2016-Dec-25 08:26N 39°24' W 000°14'0 0.0
2016-Dec-25 07:32N 39°24' W 000°14'0 0.0
2016-Dec-25 06:32N 39°24' W 000°14'0 0.0
2016-Dec-25 05:32N 39°24' W 000°14'0 0.0
2016-Dec-25 04:29N 39°24' W 000°14'0 0.0
2016-Dec-25 03:26N 39°24' W 000°14'0 0.0
2016-Dec-25 02:32N 39°24' W 000°14'0 0.0
2016-Dec-25 01:32N 39°24' W 000°14'0 0.0
2016-Dec-25 00:29N 39°24' W 000°14'0 0.0
2016-Dec-24 23:23N 39°24' W 000°14'0 0.1
2016-Dec-24 22:33N 39°24' W 000°14'8 7.1
2016-Dec-24 21:29N 39°27' W 000°05'6212.6
2016-Dec-24 16:33N 39°58' E 001°05'  
Track history (hours):
 
Tides and Currents Weather Stations Pressure Air Temp Water Temp Dewpoint Dewpoint Depression Visibility Wind Speed Wind Dir Waves Ship Positions

Windhoek

Last reported at 2017-Jan-03 16:28 UTC. Time now 2017-Jan-17 19:14 UTC.
Position N 27°02' W 014°18'.
Warning: this ship's position is 14 days out of date.

Length 172 m; draft 9.2 m.

Type: Ship (hazmat cat C). MMSI: 370431000.

Date/timePositionNaut miles runAvg speedWind from/ knotsBaromVisibWave heightAir tempDewpointWater temp
2017-Jan-03 16:28N 27°02' W 014°18'1515.5
2017-Jan-03 15:32N 27°15' W 014°09'3015.4
2017-Jan-03 13:33N 27°40' W 013°51'3015.0
2017-Jan-03 11:33N 28°06' W 013°32'1814.6
2017-Jan-03 10:21N 28°21' W 013°22'1414.5
2017-Jan-03 09:21N 28°33' W 013°13'  
2016-Dec-30 08:15N 36°08' W 005°25'0 0.0
2016-Dec-30 07:33N 36°08' W 005°25'0 0.0
2016-Dec-30 06:33N 36°08' W 005°25'0 0.0
2016-Dec-30 05:33N 36°08' W 005°25'0 0.0
2016-Dec-30 04:24N 36°08' W 005°25'0 0.0
2016-Dec-30 03:33N 36°08' W 005°25'0 0.0
2016-Dec-30 02:33N 36°08' W 005°25'0 0.0
2016-Dec-30 01:33N 36°08' W 005°25'0 0.0
2016-Dec-30 00:33N 36°08' W 005°25'0 0.0
2016-Dec-29 23:33N 36°08' W 005°25'0 0.1
2016-Dec-29 22:33N 36°08' W 005°25'4 4.4
2016-Dec-29 21:33N 36°04' W 005°23'2 2.3
2016-Dec-29 20:33N 36°03' W 005°20'1 1.2
2016-Dec-29 19:33N 36°03' W 005°18'2 2.0
2016-Dec-29 18:33N 36°02' W 005°21'8 8.0
2016-Dec-29 17:33N 35°57' W 005°28'7 5.9
2016-Dec-29 16:26N 35°53' W 005°34'0 0.0
2016-Dec-29 15:26N 35°53' W 005°34'0 0.1
2016-Dec-29 08:26N 35°53' W 005°34'2 0.1
2016-Dec-28 12:19N 35°55' W 005°33'2 1.8
2016-Dec-28 11:15N 35°57' W 005°32'811.3
2016-Dec-28 10:34N 36°01' W 005°24'1211.6
2016-Dec-28 09:33N 36°04' W 005°10'12514.9
2016-Dec-28 01:09N 36°22' W 002°37'1016.1
2016-Dec-28 00:33N 36°23' W 002°25'3115.4
2016-Dec-27 22:33N 36°39' W 001°52'9916.1
2016-Dec-27 16:26N 37°47' W 000°22'9812.0
2016-Dec-27 08:18N 39°25' W 000°15'4 5.3
2016-Dec-27 07:33N 39°27' W 000°19'0 0.0
2016-Dec-27 06:33N 39°27' W 000°19'0 0.0
2016-Dec-27 05:33N 39°27' W 000°19'0 0.0
2016-Dec-27 04:33N 39°27' W 000°19'0 0.0
2016-Dec-27 03:33N 39°27' W 000°19'0 0.0
2016-Dec-27 02:33N 39°27' W 000°19'0 0.0
2016-Dec-27 01:33N 39°27' W 000°19'0 0.0
2016-Dec-27 00:33N 39°27' W 000°19'0 0.0
2016-Dec-26 23:33N 39°27' W 000°19'0 0.0
2016-Dec-26 22:33N 39°27' W 000°19'0 0.0
2016-Dec-26 21:33N 39°27' W 000°19'0 0.0
2016-Dec-26 20:33N 39°27' W 000°19'0 0.0
2016-Dec-26 19:33N 39°27' W 000°19'0 0.0
2016-Dec-26 18:33N 39°27' W 000°19'0 0.0
2016-Dec-26 17:33N 39°27' W 000°19'0 0.0
2016-Dec-26 16:33N 39°27' W 000°19'0 0.0
2016-Dec-26 15:33N 39°27' W 000°19'0 0.0
2016-Dec-26 14:33N 39°27' W 000°19'0 0.0
2016-Dec-26 13:33N 39°27' W 000°19'0 0.0
2016-Dec-26 12:33N 39°27' W 000°19'0 0.0
2016-Dec-26 11:33N 39°27' W 000°19'0 0.0
2016-Dec-26 10:33N 39°27' W 000°19'0 0.0
2016-Dec-26 09:33N 39°27' W 000°19'0 0.0
2016-Dec-26 08:33N 39°27' W 000°19'0 0.0
2016-Dec-26 07:33N 39°27' W 000°19'0 0.0
2016-Dec-26 06:33N 39°27' W 000°19'0 0.1
2016-Dec-26 05:33N 39°27' W 000°19'5 5.0
2016-Dec-26 04:32N 39°24' W 000°14'0 0.0
2016-Dec-26 03:32N 39°24' W 000°14'0 0.0
2016-Dec-26 02:32N 39°24' W 000°14'0 0.0
2016-Dec-26 01:29N 39°24' W 000°14'0 0.0
2016-Dec-26 00:32N 39°24' W 000°14'0 0.0
2016-Dec-25 23:29N 39°24' W 000°14'0 0.0
2016-Dec-25 22:14N 39°24' W 000°14'0 0.0
2016-Dec-25 21:29N 39°24' W 000°14'0 0.0
2016-Dec-25 20:32N 39°24' W 000°14'0 0.1
2016-Dec-25 19:26N 39°24' W 000°14'0 0.0
2016-Dec-25 15:29N 39°24' W 000°14'0 0.0
2016-Dec-25 13:32N 39°24' W 000°14'0 0.0
2016-Dec-25 11:17N 39°24' W 000°14'0 0.0
2016-Dec-25 10:32N 39°24' W 000°14'0 0.0
2016-Dec-25 09:29N 39°24' W 000°14'0 0.0
2016-Dec-25 08:26N 39°24' W 000°14'0 0.0
2016-Dec-25 07:32N 39°24' W 000°14'0 0.0
2016-Dec-25 06:32N 39°24' W 000°14'0 0.0
2016-Dec-25 05:32N 39°24' W 000°14'0 0.0
2016-Dec-25 04:29N 39°24' W 000°14'0 0.0
2016-Dec-25 03:26N 39°24' W 000°14'0 0.0
2016-Dec-25 02:32N 39°24' W 000°14'0 0.0
2016-Dec-25 01:32N 39°24' W 000°14'0 0.0
2016-Dec-25 00:29N 39°24' W 000°14'0 0.0
2016-Dec-24 23:23N 39°24' W 000°14'0 0.1
2016-Dec-24 22:33N 39°24' W 000°14'8 7.1
2016-Dec-24 21:29N 39°27' W 000°05'6212.6
2016-Dec-24 16:33N 39°58' E 001°05'  

Dump ship's entire track history